sensor_id;sensor_type;location;lat;lon;timestamp;P1;durP1;ratioP1;P2;durP2;ratioP2
67640;SDS011;54434;50.096;20.082;2022-10-31T00:00:23;32.90;;;17.70;;
67640;SDS011;54434;50.096;20.082;2022-10-31T00:03:19;36.60;;;18.20;;
67640;SDS011;54434;50.096;20.082;2022-10-31T00:05:55;38.80;;;19.20;;
67640;SDS011;54434;50.096;20.082;2022-10-31T00:08:31;32.80;;;16.70;;
67640;SDS011;54434;50.096;20.082;2022-10-31T00:11:11;30.10;;;17.10;;
67640;SDS011;54434;50.096;20.082;2022-10-31T00:13:47;32.30;;;17.40;;
67640;SDS011;54434;50.096;20.082;2022-10-31T00:16:24;31.30;;;17.70;;
67640;SDS011;54434;50.096;20.082;2022-10-31T00:19:03;34.80;;;18.10;;
67640;SDS011;54434;50.096;20.082;2022-10-31T00:21:40;31.20;;;18.10;;
67640;SDS011;54434;50.096;20.082;2022-10-31T00:24:16;36.90;;;19.50;;
67640;SDS011;54434;50.096;20.082;2022-10-31T00:26:53;34.00;;;19.00;;
67640;SDS011;54434;50.096;20.082;2022-10-31T00:29:29;32.80;;;19.00;;
67640;SDS011;54434;50.096;20.082;2022-10-31T00:32:05;27.90;;;17.60;;
67640;SDS011;54434;50.096;20.082;2022-10-31T00:34:41;30.50;;;18.00;;
67640;SDS011;54434;50.096;20.082;2022-10-31T00:37:18;30.90;;;18.30;;
67640;SDS011;54434;50.096;20.082;2022-10-31T00:39:53;32.50;;;17.80;;
67640;SDS011;54434;50.096;20.082;2022-10-31T00:42:29;35.60;;;19.30;;
67640;SDS011;54434;50.096;20.082;2022-10-31T00:45:07;30.10;;;18.30;;
67640;SDS011;54434;50.096;20.082;2022-10-31T00:47:44;32.60;;;18.10;;
67640;SDS011;54434;50.096;20.082;2022-10-31T00:50:20;32.90;;;18.20;;
67640;SDS011;54434;50.096;20.082;2022-10-31T00:52:56;50.10;;;18.20;;
67640;SDS011;54434;50.096;20.082;2022-10-31T00:55:32;36.10;;;18.80;;
67640;SDS011;54434;50.096;20.082;2022-10-31T00:58:08;26.80;;;16.20;;
67640;SDS011;54434;50.096;20.082;2022-10-31T01:00:44;32.50;;;17.40;;
67640;SDS011;54434;50.096;20.082;2022-10-31T01:03:31;31.70;;;18.20;;
67640;SDS011;54434;50.096;20.082;2022-10-31T01:06:10;32.70;;;17.60;;
67640;SDS011;54434;50.096;20.082;2022-10-31T01:08:48;34.40;;;17.90;;
67640;SDS011;54434;50.096;20.082;2022-10-31T01:11:24;33.10;;;19.30;;
67640;SDS011;54434;50.096;20.082;2022-10-31T01:14:00;34.70;;;18.90;;
67640;SDS011;54434;50.096;20.082;2022-10-31T01:16:37;36.40;;;19.40;;
67640;SDS011;54434;50.096;20.082;2022-10-31T01:19:13;34.60;;;18.70;;
67640;SDS011;54434;50.096;20.082;2022-10-31T01:21:49;31.80;;;18.30;;
67640;SDS011;54434;50.096;20.082;2022-10-31T01:24:28;39.50;;;20.50;;
67640;SDS011;54434;50.096;20.082;2022-10-31T01:27:04;38.90;;;19.30;;
67640;SDS011;54434;50.096;20.082;2022-10-31T01:29:40;37.80;;;21.10;;
67640;SDS011;54434;50.096;20.082;2022-10-31T01:32:15;36.00;;;19.60;;
67640;SDS011;54434;50.096;20.082;2022-10-31T01:34:51;39.00;;;21.10;;
67640;SDS011;54434;50.096;20.082;2022-10-31T01:37:27;33.40;;;18.90;;
67640;SDS011;54434;50.096;20.082;2022-10-31T01:40:06;37.40;;;19.70;;
67640;SDS011;54434;50.096;20.082;2022-10-31T01:42:43;40.30;;;18.50;;
67640;SDS011;54434;50.096;20.082;2022-10-31T01:45:19;33.30;;;19.20;;
67640;SDS011;54434;50.096;20.082;2022-10-31T01:47:55;35.40;;;20.70;;
67640;SDS011;54434;50.096;20.082;2022-10-31T01:50:37;36.40;;;20.90;;
67640;SDS011;54434;50.096;20.082;2022-10-31T01:53:14;39.00;;;20.90;;
67640;SDS011;54434;50.096;20.082;2022-10-31T01:56:00;35.70;;;20.30;;
67640;SDS011;54434;50.096;20.082;2022-10-31T01:58:37;38.50;;;20.50;;
67640;SDS011;54434;50.096;20.082;2022-10-31T02:01:14;35.10;;;20.30;;
67640;SDS011;54434;50.096;20.082;2022-10-31T02:03:51;40.50;;;22.20;;
67640;SDS011;54434;50.096;20.082;2022-10-31T02:06:38;45.00;;;22.60;;
67640;SDS011;54434;50.096;20.082;2022-10-31T02:09:20;42.00;;;22.40;;
67640;SDS011;54434;50.096;20.082;2022-10-31T02:11:58;41.80;;;23.60;;
67640;SDS011;54434;50.096;20.082;2022-10-31T02:14:36;43.60;;;24.80;;
67640;SDS011;54434;50.096;20.082;2022-10-31T02:17:13;44.60;;;24.50;;
67640;SDS011;54434;50.096;20.082;2022-10-31T02:19:57;43.40;;;24.00;;
67640;SDS011;54434;50.096;20.082;2022-10-31T02:22:48;43.90;;;23.80;;
67640;SDS011;54434;50.096;20.082;2022-10-31T02:26:07;39.80;;;21.50;;
67640;SDS011;54434;50.096;20.082;2022-10-31T02:32:34;38.20;;;21.80;;
67640;SDS011;54434;50.096;20.082;2022-10-31T02:35:45;48.90;;;23.10;;
67640;SDS011;54434;50.096;20.082;2022-10-31T02:38:41;46.00;;;24.80;;
67640;SDS011;54434;50.096;20.082;2022-10-31T02:41:45;45.90;;;24.50;;
67640;SDS011;54434;50.096;20.082;2022-10-31T02:44:30;48.30;;;25.60;;
67640;SDS011;54434;50.096;20.082;2022-10-31T02:47:14;44.90;;;24.70;;
67640;SDS011;54434;50.096;20.082;2022-10-31T02:49:57;50.90;;;26.10;;
67640;SDS011;54434;50.096;20.082;2022-10-31T02:52:37;48.60;;;26.20;;
67640;SDS011;54434;50.096;20.082;2022-10-31T02:55:56;56.20;;;26.50;;
67640;SDS011;54434;50.096;20.082;2022-10-31T02:58:38;43.80;;;23.80;;
67640;SDS011;54434;50.096;20.082;2022-10-31T03:01:47;50.00;;;25.80;;
67640;SDS011;54434;50.096;20.082;2022-10-31T03:05:16;45.60;;;24.50;;
67640;SDS011;54434;50.096;20.082;2022-10-31T03:08:15;44.50;;;25.40;;
67640;SDS011;54434;50.096;20.082;2022-10-31T03:10:59;45.40;;;25.40;;
67640;SDS011;54434;50.096;20.082;2022-10-31T03:16:34;39.70;;;21.70;;
67640;SDS011;54434;50.096;20.082;2022-10-31T03:19:22;40.80;;;23.80;;
67640;SDS011;54434;50.096;20.082;2022-10-31T03:22:06;46.60;;;24.60;;
67640;SDS011;54434;50.096;20.082;2022-10-31T03:24:50;44.40;;;24.50;;
67640;SDS011;54434;50.096;20.082;2022-10-31T03:27:30;47.30;;;25.70;;
67640;SDS011;54434;50.096;20.082;2022-10-31T03:30:11;47.80;;;24.90;;
67640;SDS011;54434;50.096;20.082;2022-10-31T03:33:01;45.60;;;24.50;;
67640;SDS011;54434;50.096;20.082;2022-10-31T03:35:46;42.40;;;25.00;;
67640;SDS011;54434;50.096;20.082;2022-10-31T03:38:25;49.90;;;26.40;;
67640;SDS011;54434;50.096;20.082;2022-10-31T03:41:05;45.60;;;26.30;;
67640;SDS011;54434;50.096;20.082;2022-10-31T03:43:51;46.60;;;26.20;;
67640;SDS011;54434;50.096;20.082;2022-10-31T03:46:31;44.70;;;25.30;;
67640;SDS011;54434;50.096;20.082;2022-10-31T03:49:08;52.70;;;25.70;;
67640;SDS011;54434;50.096;20.082;2022-10-31T03:51:49;45.40;;;25.60;;
67640;SDS011;54434;50.096;20.082;2022-10-31T03:54:33;46.10;;;25.50;;
67640;SDS011;54434;50.096;20.082;2022-10-31T03:57:25;44.30;;;24.90;;
67640;SDS011;54434;50.096;20.082;2022-10-31T04:00:13;44.90;;;24.70;;
67640;SDS011;54434;50.096;20.082;2022-10-31T04:02:55;48.20;;;24.70;;
67640;SDS011;54434;50.096;20.082;2022-10-31T04:05:36;45.40;;;24.80;;
67640;SDS011;54434;50.096;20.082;2022-10-31T04:08:17;45.20;;;24.50;;
67640;SDS011;54434;50.096;20.082;2022-10-31T04:10:59;43.80;;;25.10;;
67640;SDS011;54434;50.096;20.082;2022-10-31T04:13:38;40.40;;;23.20;;
67640;SDS011;54434;50.096;20.082;2022-10-31T04:16:20;44.40;;;24.60;;
67640;SDS011;54434;50.096;20.082;2022-10-31T04:18:57;45.20;;;23.80;;
67640;SDS011;54434;50.096;20.082;2022-10-31T04:21:33;43.50;;;23.00;;
67640;SDS011;54434;50.096;20.082;2022-10-31T04:24:10;41.30;;;23.50;;
67640;SDS011;54434;50.096;20.082;2022-10-31T04:26:46;45.00;;;24.00;;
67640;SDS011;54434;50.096;20.082;2022-10-31T04:29:22;48.20;;;24.00;;
67640;SDS011;54434;50.096;20.082;2022-10-31T04:31:58;44.10;;;23.90;;
67640;SDS011;54434;50.096;20.082;2022-10-31T04:34:34;41.50;;;22.70;;
67640;SDS011;54434;50.096;20.082;2022-10-31T04:37:10;36.50;;;22.60;;
67640;SDS011;54434;50.096;20.082;2022-10-31T04:39:46;46.50;;;23.10;;
67640;SDS011;54434;50.096;20.082;2022-10-31T04:42:54;40.30;;;22.10;;
67640;SDS011;54434;50.096;20.082;2022-10-31T04:45:30;43.60;;;22.80;;
67640;SDS011;54434;50.096;20.082;2022-10-31T04:48:07;40.70;;;22.60;;
67640;SDS011;54434;50.096;20.082;2022-10-31T04:50:44;44.20;;;24.00;;
67640;SDS011;54434;50.096;20.082;2022-10-31T04:53:20;42.00;;;23.30;;
67640;SDS011;54434;50.096;20.082;2022-10-31T04:56:39;42.20;;;22.10;;
67640;SDS011;54434;50.096;20.082;2022-10-31T04:59:20;39.10;;;21.90;;
67640;SDS011;54434;50.096;20.082;2022-10-31T05:01:58;42.10;;;23.20;;
67640;SDS011;54434;50.096;20.082;2022-10-31T05:04:58;40.00;;;21.70;;
67640;SDS011;54434;50.096;20.082;2022-10-31T05:07:39;41.30;;;22.30;;
67640;SDS011;54434;50.096;20.082;2022-10-31T05:10:18;44.00;;;23.20;;
67640;SDS011;54434;50.096;20.082;2022-10-31T05:12:57;42.80;;;23.10;;
67640;SDS011;54434;50.096;20.082;2022-10-31T05:15:54;44.30;;;23.40;;
67640;SDS011;54434;50.096;20.082;2022-10-31T05:18:49;44.40;;;22.60;;
67640;SDS011;54434;50.096;20.082;2022-10-31T05:22:05;46.10;;;22.80;;
67640;SDS011;54434;50.096;20.082;2022-10-31T05:24:43;41.70;;;22.70;;
67640;SDS011;54434;50.096;20.082;2022-10-31T05:27:19;45.20;;;23.00;;
67640;SDS011;54434;50.096;20.082;2022-10-31T05:29:54;44.30;;;23.60;;
67640;SDS011;54434;50.096;20.082;2022-10-31T05:32:41;55.00;;;29.20;;
67640;SDS011;54434;50.096;20.082;2022-10-31T05:35:41;233.30;;;113.10;;
67640;SDS011;54434;50.096;20.082;2022-10-31T05:38:39;56.50;;;29.00;;
67640;SDS011;54434;50.096;20.082;2022-10-31T05:41:31;40.10;;;20.50;;
67640;SDS011;54434;50.096;20.082;2022-10-31T05:44:10;43.70;;;22.90;;
67640;SDS011;54434;50.096;20.082;2022-10-31T05:46:57;36.50;;;21.30;;
67640;SDS011;54434;50.096;20.082;2022-10-31T05:50:16;35.00;;;20.40;;
67640;SDS011;54434;50.096;20.082;2022-10-31T05:52:59;53.50;;;28.20;;
67640;SDS011;54434;50.096;20.082;2022-10-31T05:55:40;41.90;;;22.60;;
67640;SDS011;54434;50.096;20.082;2022-10-31T05:58:22;40.90;;;21.70;;
67640;SDS011;54434;50.096;20.082;2022-10-31T06:01:11;40.40;;;21.80;;
67640;SDS011;54434;50.096;20.082;2022-10-31T06:03:49;41.90;;;22.50;;
67640;SDS011;54434;50.096;20.082;2022-10-31T06:06:28;44.90;;;23.60;;
67640;SDS011;54434;50.096;20.082;2022-10-31T06:09:04;43.90;;;23.30;;
67640;SDS011;54434;50.096;20.082;2022-10-31T06:11:40;48.50;;;24.50;;
67640;SDS011;54434;50.096;20.082;2022-10-31T06:14:36;50.80;;;24.40;;
67640;SDS011;54434;50.096;20.082;2022-10-31T06:17:13;53.80;;;25.50;;
67640;SDS011;54434;50.096;20.082;2022-10-31T06:19:52;47.20;;;25.60;;
67640;SDS011;54434;50.096;20.082;2022-10-31T06:22:30;55.00;;;27.60;;
67640;SDS011;54434;50.096;20.082;2022-10-31T06:25:08;64.70;;;28.00;;
67640;SDS011;54434;50.096;20.082;2022-10-31T06:27:49;65.00;;;28.20;;
67640;SDS011;54434;50.096;20.082;2022-10-31T06:30:25;62.70;;;28.20;;
67640;SDS011;54434;50.096;20.082;2022-10-31T06:33:06;54.00;;;27.90;;
67640;SDS011;54434;50.096;20.082;2022-10-31T06:35:48;52.60;;;27.50;;
67640;SDS011;54434;50.096;20.082;2022-10-31T06:38:26;56.70;;;27.60;;
67640;SDS011;54434;50.096;20.082;2022-10-31T06:41:06;56.50;;;26.90;;
67640;SDS011;54434;50.096;20.082;2022-10-31T06:43:52;57.70;;;27.00;;
67640;SDS011;54434;50.096;20.082;2022-10-31T06:46:48;55.30;;;26.80;;
67640;SDS011;54434;50.096;20.082;2022-10-31T06:49:42;50.00;;;26.10;;
67640;SDS011;54434;50.096;20.082;2022-10-31T06:52:21;50.00;;;26.90;;
67640;SDS011;54434;50.096;20.082;2022-10-31T06:54:57;55.70;;;26.50;;
67640;SDS011;54434;50.096;20.082;2022-10-31T06:57:34;46.50;;;25.20;;
67640;SDS011;54434;50.096;20.082;2022-10-31T07:00:13;56.20;;;25.20;;
67640;SDS011;54434;50.096;20.082;2022-10-31T07:03:00;40.80;;;22.90;;
67640;SDS011;54434;50.096;20.082;2022-10-31T07:05:38;41.50;;;23.40;;
67640;SDS011;54434;50.096;20.082;2022-10-31T07:08:16;39.70;;;21.40;;
67640;SDS011;54434;50.096;20.082;2022-10-31T07:10:56;41.90;;;22.50;;
67640;SDS011;54434;50.096;20.082;2022-10-31T07:13:33;39.90;;;21.20;;
67640;SDS011;54434;50.096;20.082;2022-10-31T07:16:11;43.30;;;23.30;;
67640;SDS011;54434;50.096;20.082;2022-10-31T07:18:51;39.40;;;22.20;;
67640;SDS011;54434;50.096;20.082;2022-10-31T07:21:27;35.10;;;19.90;;
67640;SDS011;54434;50.096;20.082;2022-10-31T07:24:04;35.60;;;19.50;;
67640;SDS011;54434;50.096;20.082;2022-10-31T07:26:46;29.80;;;17.80;;
67640;SDS011;54434;50.096;20.082;2022-10-31T07:29:22;34.50;;;17.80;;
67640;SDS011;54434;50.096;20.082;2022-10-31T07:31:58;27.70;;;16.10;;
67640;SDS011;54434;50.096;20.082;2022-10-31T07:34:35;30.30;;;15.40;;
67640;SDS011;54434;50.096;20.082;2022-10-31T07:37:31;30.60;;;14.90;;
67640;SDS011;54434;50.096;20.082;2022-10-31T07:40:10;28.10;;;13.70;;
67640;SDS011;54434;50.096;20.082;2022-10-31T07:42:49;26.20;;;13.90;;
67640;SDS011;54434;50.096;20.082;2022-10-31T07:45:50;27.00;;;14.20;;
67640;SDS011;54434;50.096;20.082;2022-10-31T07:48:46;23.20;;;13.00;;
67640;SDS011;54434;50.096;20.082;2022-10-31T07:52:00;22.10;;;13.00;;
67640;SDS011;54434;50.096;20.082;2022-10-31T07:54:55;24.30;;;12.50;;
67640;SDS011;54434;50.096;20.082;2022-10-31T07:57:31;23.70;;;12.80;;
67640;SDS011;54434;50.096;20.082;2022-10-31T08:00:10;22.80;;;12.20;;
67640;SDS011;54434;50.096;20.082;2022-10-31T08:02:55;25.90;;;12.00;;
67640;SDS011;54434;50.096;20.082;2022-10-31T08:05:52;27.60;;;12.10;;
67640;SDS011;54434;50.096;20.082;2022-10-31T08:08:47;24.70;;;12.30;;
67640;SDS011;54434;50.096;20.082;2022-10-31T08:11:23;22.40;;;11.30;;
67640;SDS011;54434;50.096;20.082;2022-10-31T08:13:59;22.90;;;11.80;;
67640;SDS011;54434;50.096;20.082;2022-10-31T08:16:35;21.20;;;11.80;;
67640;SDS011;54434;50.096;20.082;2022-10-31T08:19:11;28.40;;;11.60;;
67640;SDS011;54434;50.096;20.082;2022-10-31T08:21:51;26.70;;;12.00;;
67640;SDS011;54434;50.096;20.082;2022-10-31T08:24:28;30.70;;;11.60;;
67640;SDS011;54434;50.096;20.082;2022-10-31T08:27:04;23.00;;;10.60;;
67640;SDS011;54434;50.096;20.082;2022-10-31T08:29:40;24.20;;;10.10;;
67640;SDS011;54434;50.096;20.082;2022-10-31T08:32:16;19.00;;;10.20;;
67640;SDS011;54434;50.096;20.082;2022-10-31T08:35:12;19.70;;;10.00;;
67640;SDS011;54434;50.096;20.082;2022-10-31T08:38:17;24.20;;;11.20;;
67640;SDS011;54434;50.096;20.082;2022-10-31T08:40:53;28.10;;;11.20;;
67640;SDS011;54434;50.096;20.082;2022-10-31T08:43:28;26.50;;;11.10;;
67640;SDS011;54434;50.096;20.082;2022-10-31T08:46:05;24.70;;;10.80;;
67640;SDS011;54434;50.096;20.082;2022-10-31T08:48:41;25.50;;;10.50;;
67640;SDS011;54434;50.096;20.082;2022-10-31T08:51:17;21.60;;;10.90;;
67640;SDS011;54434;50.096;20.082;2022-10-31T08:53:56;23.00;;;10.70;;
67640;SDS011;54434;50.096;20.082;2022-10-31T08:56:41;23.00;;;10.30;;
67640;SDS011;54434;50.096;20.082;2022-10-31T09:00:12;22.10;;;9.80;;
67640;SDS011;54434;50.096;20.082;2022-10-31T09:03:08;20.60;;;9.80;;
67640;SDS011;54434;50.096;20.082;2022-10-31T09:05:48;19.70;;;10.00;;
67640;SDS011;54434;50.096;20.082;2022-10-31T09:08:24;22.90;;;10.10;;
67640;SDS011;54434;50.096;20.082;2022-10-31T09:11:00;25.60;;;10.20;;
67640;SDS011;54434;50.096;20.082;2022-10-31T09:13:56;20.40;;;9.10;;
67640;SDS011;54434;50.096;20.082;2022-10-31T09:16:44;21.20;;;9.20;;
67640;SDS011;54434;50.096;20.082;2022-10-31T09:19:26;26.10;;;10.20;;
67640;SDS011;54434;50.096;20.082;2022-10-31T09:22:03;19.90;;;9.40;;
67640;SDS011;54434;50.096;20.082;2022-10-31T09:24:39;21.40;;;9.20;;
67640;SDS011;54434;50.096;20.082;2022-10-31T09:27:15;24.70;;;8.80;;
67640;SDS011;54434;50.096;20.082;2022-10-31T09:29:53;19.70;;;10.10;;
67640;SDS011;54434;50.096;20.082;2022-10-31T09:32:29;22.50;;;9.30;;
67640;SDS011;54434;50.096;20.082;2022-10-31T09:35:06;18.40;;;8.80;;
67640;SDS011;54434;50.096;20.082;2022-10-31T09:37:55;20.70;;;7.90;;
67640;SDS011;54434;50.096;20.082;2022-10-31T09:40:34;16.90;;;7.90;;
67640;SDS011;54434;50.096;20.082;2022-10-31T09:43:18;19.80;;;8.00;;
67640;SDS011;54434;50.096;20.082;2022-10-31T09:46:07;18.80;;;8.30;;
67640;SDS011;54434;50.096;20.082;2022-10-31T09:52:12;19.40;;;8.30;;
67640;SDS011;54434;50.096;20.082;2022-10-31T09:54:56;18.80;;;7.90;;
67640;SDS011;54434;50.096;20.082;2022-10-31T09:57:37;20.50;;;8.60;;
67640;SDS011;54434;50.096;20.082;2022-10-31T10:00:19;27.10;;;8.70;;
67640;SDS011;54434;50.096;20.082;2022-10-31T10:02:59;17.90;;;8.50;;
67640;SDS011;54434;50.096;20.082;2022-10-31T10:05:49;16.10;;;7.70;;
67640;SDS011;54434;50.096;20.082;2022-10-31T10:08:41;22.30;;;8.00;;
67640;SDS011;54434;50.096;20.082;2022-10-31T10:11:53;23.70;;;7.60;;
67640;SDS011;54434;50.096;20.082;2022-10-31T10:14:57;26.90;;;7.30;;
67640;SDS011;54434;50.096;20.082;2022-10-31T10:18:08;17.00;;;6.10;;
67640;SDS011;54434;50.096;20.082;2022-10-31T10:21:05;18.80;;;6.40;;
67640;SDS011;54434;50.096;20.082;2022-10-31T10:24:10;26.70;;;6.80;;
67640;SDS011;54434;50.096;20.082;2022-10-31T10:27:09;21.90;;;6.50;;
67640;SDS011;54434;50.096;20.082;2022-10-31T10:30:01;17.50;;;6.10;;
67640;SDS011;54434;50.096;20.082;2022-10-31T10:32:48;19.80;;;6.10;;
67640;SDS011;54434;50.096;20.082;2022-10-31T10:35:30;16.10;;;6.20;;
67640;SDS011;54434;50.096;20.082;2022-10-31T10:38:19;18.70;;;5.70;;
67640;SDS011;54434;50.096;20.082;2022-10-31T10:41:00;14.70;;;6.70;;
67640;SDS011;54434;50.096;20.082;2022-10-31T10:43:39;16.10;;;5.90;;
67640;SDS011;54434;50.096;20.082;2022-10-31T10:46:26;17.30;;;5.90;;
67640;SDS011;54434;50.096;20.082;2022-10-31T10:49:31;18.20;;;5.90;;
67640;SDS011;54434;50.096;20.082;2022-10-31T10:52:20;16.40;;;5.70;;
67640;SDS011;54434;50.096;20.082;2022-10-31T10:55:32;14.30;;;5.80;;
67640;SDS011;54434;50.096;20.082;2022-10-31T10:58:15;18.50;;;5.80;;
67640;SDS011;54434;50.096;20.082;2022-10-31T11:00:53;17.40;;;6.30;;
67640;SDS011;54434;50.096;20.082;2022-10-31T11:03:30;19.70;;;6.20;;
67640;SDS011;54434;50.096;20.082;2022-10-31T11:06:20;17.00;;;6.50;;
67640;SDS011;54434;50.096;20.082;2022-10-31T11:09:09;16.40;;;5.60;;
67640;SDS011;54434;50.096;20.082;2022-10-31T11:11:45;14.70;;;5.70;;
67640;SDS011;54434;50.096;20.082;2022-10-31T11:14:21;17.30;;;5.90;;
67640;SDS011;54434;50.096;20.082;2022-10-31T11:17:17;15.50;;;5.90;;
67640;SDS011;54434;50.096;20.082;2022-10-31T11:20:28;16.50;;;6.40;;
67640;SDS011;54434;50.096;20.082;2022-10-31T11:23:20;23.70;;;6.30;;
67640;SDS011;54434;50.096;20.082;2022-10-31T11:26:00;13.80;;;5.60;;
67640;SDS011;54434;50.096;20.082;2022-10-31T11:28:37;18.40;;;5.30;;
67640;SDS011;54434;50.096;20.082;2022-10-31T11:31:16;15.40;;;5.40;;
67640;SDS011;54434;50.096;20.082;2022-10-31T11:33:57;17.60;;;5.90;;
67640;SDS011;54434;50.096;20.082;2022-10-31T11:36:37;14.60;;;5.20;;
67640;SDS011;54434;50.096;20.082;2022-10-31T11:39:22;20.90;;;6.20;;
67640;SDS011;54434;50.096;20.082;2022-10-31T11:42:03;13.60;;;5.90;;
67640;SDS011;54434;50.096;20.082;2022-10-31T11:44:44;15.00;;;5.20;;
67640;SDS011;54434;50.096;20.082;2022-10-31T11:47:25;19.80;;;5.90;;
67640;SDS011;54434;50.096;20.082;2022-10-31T11:50:11;28.80;;;6.50;;
67640;SDS011;54434;50.096;20.082;2022-10-31T11:52:55;19.30;;;5.80;;
67640;SDS011;54434;50.096;20.082;2022-10-31T11:55:37;30.50;;;6.40;;
67640;SDS011;54434;50.096;20.082;2022-10-31T11:58:25;25.40;;;6.70;;
67640;SDS011;54434;50.096;20.082;2022-10-31T12:01:02;30.00;;;6.10;;
67640;SDS011;54434;50.096;20.082;2022-10-31T12:03:51;13.70;;;5.90;;
67640;SDS011;54434;50.096;20.082;2022-10-31T12:06:35;18.10;;;5.80;;
67640;SDS011;54434;50.096;20.082;2022-10-31T12:09:21;25.70;;;6.10;;
67640;SDS011;54434;50.096;20.082;2022-10-31T12:12:13;24.60;;;5.90;;
67640;SDS011;54434;50.096;20.082;2022-10-31T12:15:16;20.50;;;6.10;;
67640;SDS011;54434;50.096;20.082;2022-10-31T12:18:31;20.30;;;6.20;;
67640;SDS011;54434;50.096;20.082;2022-10-31T12:21:27;16.80;;;5.80;;
67640;SDS011;54434;50.096;20.082;2022-10-31T12:24:29;15.60;;;5.60;;
67640;SDS011;54434;50.096;20.082;2022-10-31T12:27:24;27.40;;;6.10;;
67640;SDS011;54434;50.096;20.082;2022-10-31T12:30:20;20.90;;;6.10;;
67640;SDS011;54434;50.096;20.082;2022-10-31T12:33:27;16.00;;;5.90;;
67640;SDS011;54434;50.096;20.082;2022-10-31T12:36:45;12.50;;;5.80;;
67640;SDS011;54434;50.096;20.082;2022-10-31T12:39:39;15.20;;;5.50;;
67640;SDS011;54434;50.096;20.082;2022-10-31T12:42:44;14.70;;;5.00;;
67640;SDS011;54434;50.096;20.082;2022-10-31T12:45:49;16.10;;;5.50;;
67640;SDS011;54434;50.096;20.082;2022-10-31T12:51:57;17.00;;;5.50;;
67640;SDS011;54434;50.096;20.082;2022-10-31T12:54:57;15.00;;;5.40;;
67640;SDS011;54434;50.096;20.082;2022-10-31T13:00:21;15.90;;;5.80;;
67640;SDS011;54434;50.096;20.082;2022-10-31T13:03:16;20.50;;;5.90;;
67640;SDS011;54434;50.096;20.082;2022-10-31T13:06:02;20.60;;;6.40;;
67640;SDS011;54434;50.096;20.082;2022-10-31T13:08:44;17.20;;;6.00;;
67640;SDS011;54434;50.096;20.082;2022-10-31T13:11:26;22.90;;;6.70;;
67640;SDS011;54434;50.096;20.082;2022-10-31T13:14:11;18.60;;;5.70;;
67640;SDS011;54434;50.096;20.082;2022-10-31T13:16:56;19.60;;;5.80;;
67640;SDS011;54434;50.096;20.082;2022-10-31T13:19:38;13.40;;;5.30;;
67640;SDS011;54434;50.096;20.082;2022-10-31T13:22:20;14.90;;;5.70;;
67640;SDS011;54434;50.096;20.082;2022-10-31T13:25:03;17.30;;;6.30;;
67640;SDS011;54434;50.096;20.082;2022-10-31T13:27:55;14.80;;;5.90;;
67640;SDS011;54434;50.096;20.082;2022-10-31T13:30:40;18.90;;;5.40;;
67640;SDS011;54434;50.096;20.082;2022-10-31T13:33:19;18.90;;;5.90;;
67640;SDS011;54434;50.096;20.082;2022-10-31T13:36:15;21.90;;;6.50;;
67640;SDS011;54434;50.096;20.082;2022-10-31T13:39:06;23.10;;;6.20;;
67640;SDS011;54434;50.096;20.082;2022-10-31T13:41:56;18.50;;;6.00;;
67640;SDS011;54434;50.096;20.082;2022-10-31T13:44:42;14.70;;;5.80;;
67640;SDS011;54434;50.096;20.082;2022-10-31T13:47:27;15.50;;;6.10;;
67640;SDS011;54434;50.096;20.082;2022-10-31T13:50:28;20.60;;;6.20;;
67640;SDS011;54434;50.096;20.082;2022-10-31T13:53:19;13.10;;;5.60;;
67640;SDS011;54434;50.096;20.082;2022-10-31T13:56:16;13.10;;;5.90;;
67640;SDS011;54434;50.096;20.082;2022-10-31T13:59:17;13.80;;;5.30;;
67640;SDS011;54434;50.096;20.082;2022-10-31T14:01:57;19.20;;;6.30;;
67640;SDS011;54434;50.096;20.082;2022-10-31T14:04:44;19.60;;;6.00;;
67640;SDS011;54434;50.096;20.082;2022-10-31T14:07:26;17.00;;;6.10;;
67640;SDS011;54434;50.096;20.082;2022-10-31T14:10:06;18.80;;;6.20;;
67640;SDS011;54434;50.096;20.082;2022-10-31T14:13:13;12.80;;;5.70;;
67640;SDS011;54434;50.096;20.082;2022-10-31T14:15:59;17.50;;;6.10;;
67640;SDS011;54434;50.096;20.082;2022-10-31T14:18:40;15.90;;;6.40;;
67640;SDS011;54434;50.096;20.082;2022-10-31T14:21:30;15.70;;;6.10;;
67640;SDS011;54434;50.096;20.082;2022-10-31T14:24:34;18.80;;;6.50;;
67640;SDS011;54434;50.096;20.082;2022-10-31T14:27:46;17.40;;;6.30;;
67640;SDS011;54434;50.096;20.082;2022-10-31T14:30:25;15.90;;;6.50;;
67640;SDS011;54434;50.096;20.082;2022-10-31T14:33:15;17.20;;;6.90;;
67640;SDS011;54434;50.096;20.082;2022-10-31T14:35:59;15.70;;;6.60;;
67640;SDS011;54434;50.096;20.082;2022-10-31T14:38:50;16.70;;;6.20;;
67640;SDS011;54434;50.096;20.082;2022-10-31T14:41:52;18.80;;;6.30;;
67640;SDS011;54434;50.096;20.082;2022-10-31T14:44:55;17.30;;;6.10;;
67640;SDS011;54434;50.096;20.082;2022-10-31T14:47:47;18.40;;;6.50;;
67640;SDS011;54434;50.096;20.082;2022-10-31T14:50:47;22.40;;;7.20;;
67640;SDS011;54434;50.096;20.082;2022-10-31T14:53:29;18.30;;;6.90;;
67640;SDS011;54434;50.096;20.082;2022-10-31T14:56:10;15.50;;;6.30;;
67640;SDS011;54434;50.096;20.082;2022-10-31T14:58:51;19.00;;;6.80;;
67640;SDS011;54434;50.096;20.082;2022-10-31T15:01:33;17.60;;;6.70;;
67640;SDS011;54434;50.096;20.082;2022-10-31T15:04:16;17.10;;;6.40;;
67640;SDS011;54434;50.096;20.082;2022-10-31T15:07:02;19.70;;;7.60;;
67640;SDS011;54434;50.096;20.082;2022-10-31T15:09:42;21.00;;;7.20;;
67640;SDS011;54434;50.096;20.082;2022-10-31T15:12:28;20.30;;;6.80;;
67640;SDS011;54434;50.096;20.082;2022-10-31T15:15:17;23.10;;;8.60;;
67640;SDS011;54434;50.096;20.082;2022-10-31T15:17:57;22.70;;;10.20;;
67640;SDS011;54434;50.096;20.082;2022-10-31T15:20:43;17.70;;;8.00;;
67640;SDS011;54434;50.096;20.082;2022-10-31T15:23:26;19.80;;;7.50;;
67640;SDS011;54434;50.096;20.082;2022-10-31T15:26:05;16.80;;;7.10;;
67640;SDS011;54434;50.096;20.082;2022-10-31T15:28:59;18.40;;;6.90;;
67640;SDS011;54434;50.096;20.082;2022-10-31T15:31:37;19.40;;;7.60;;
67640;SDS011;54434;50.096;20.082;2022-10-31T15:34:28;18.10;;;7.10;;
67640;SDS011;54434;50.096;20.082;2022-10-31T15:37:14;21.00;;;7.80;;
67640;SDS011;54434;50.096;20.082;2022-10-31T15:39:52;20.20;;;8.50;;
67640;SDS011;54434;50.096;20.082;2022-10-31T15:42:32;22.70;;;9.60;;
67640;SDS011;54434;50.096;20.082;2022-10-31T15:48:00;152.00;;;17.90;;
67640;SDS011;54434;50.096;20.082;2022-10-31T15:50:44;123.50;;;15.00;;
67640;SDS011;54434;50.096;20.082;2022-10-31T15:53:27;34.90;;;7.70;;
67640;SDS011;54434;50.096;20.082;2022-10-31T15:56:12;24.40;;;8.40;;
67640;SDS011;54434;50.096;20.082;2022-10-31T15:58:56;37.00;;;9.00;;
67640;SDS011;54434;50.096;20.082;2022-10-31T16:01:34;25.30;;;8.00;;
67640;SDS011;54434;50.096;20.082;2022-10-31T16:04:24;27.20;;;8.00;;
67640;SDS011;54434;50.096;20.082;2022-10-31T16:07:11;22.30;;;8.10;;
67640;SDS011;54434;50.096;20.082;2022-10-31T16:09:57;27.40;;;9.50;;
67640;SDS011;54434;50.096;20.082;2022-10-31T16:12:44;35.20;;;9.50;;
67640;SDS011;54434;50.096;20.082;2022-10-31T16:15:21;26.90;;;10.10;;